INGA4: Red River, Index, AR

Data processed at Sat Mar 10 2018 23:13


All information presented herein is the property of the government of the United States of America and may be revised or deleted at any time without prior notice.
Dissemination of this information without the expressed written consent of the Public Affairs Office, Tulsa District U.S. Army Corps of Engineers is strictly prohibited.
These data are gathered electronically and, as presented, have not undergone any form of quality control. These data are not guaranteed to be valid or correct.
Go to home page.
Go to station list.

Upstream stations:

Downstream station:
Previous Day
Next Day
Current Day
    
SHEF ID:       INGA4     Red River at Index, AR
STATION TYPE:  

               PRECIP     STAGE  RIV-FLOW  WTR-TEMP  BAT-LOAD
                   in        ft       cfs         F      volt
              Ccp-Rev   Ccp-Rev   Ccp-Rev   Ccp-Rev   Ccp-Rev
(US/Central)
03/08 00:00      0.00      9.27     36102     54.68     12.65
03/08 01:00      0.00      9.24     35962     54.50     12.57
03/08 02:00      0.00      9.25     36009     54.32     12.57
03/08 03:00      0.00      9.26     36055     54.14     12.49
03/08 04:00      0.00      9.25     36009     53.96     12.49
03/08 05:00      0.00      9.22     35869     53.96     12.49
03/08 06:00      0.00      9.22     35869     53.78     12.41
03/08 07:00      0.00      9.21     35823     53.60     12.41
03/08 08:00      0.00      9.18     35684     53.60     12.41
03/08 09:00      0.00      9.16     35591     53.60     12.49
03/08 10:00      0.00      9.15     35545     53.60     13.84
03/08 11:00      0.00      9.15     35545     53.78     13.44
03/08 12:00      0.00      9.12     35406     53.96     13.44
03/08 13:00      0.00      9.08     35220     54.32     13.21
03/08 14:00      0.00      9.07     35174     54.50     13.13
03/08 15:00      0.00      9.05     35081     54.68     13.05
03/08 16:00      0.00      9.04     35035     54.86     13.05
03/08 17:00      0.00      9.00     34850     54.86     12.97
03/08 18:00      0.00      8.97     34712     54.86     12.97
03/08 19:00      0.00      8.95     34619     54.68     12.81
03/08 20:00      0.00      8.92     34481     54.50     12.73
03/08 21:00      0.00      8.91     34435     54.32     12.73
03/08 22:00      0.00      8.89     34342     54.32     12.65
03/08 23:00      0.00      8.87     34250     54.14     12.65